createdAt,value
2022-11-16T00:00:10.509Z,8.60
2022-11-16T00:03:53.943Z,8.60
2022-11-16T00:07:35.803Z,8.60
2022-11-16T00:11:20.447Z,8.60
2022-11-16T00:15:02.170Z,8.60
2022-11-16T00:18:44.791Z,8.60
2022-11-16T00:22:26.491Z,8.60
2022-11-16T00:26:10.129Z,8.60
2022-11-16T00:29:51.831Z,8.50
2022-11-16T00:33:34.762Z,8.50
2022-11-16T00:37:16.482Z,8.40
2022-11-16T00:40:58.233Z,8.40
2022-11-16T00:44:39.920Z,8.40
2022-11-16T00:48:22.169Z,8.40
2022-11-16T00:52:04.229Z,8.40
2022-11-16T00:55:46.976Z,8.40
2022-11-16T00:59:28.681Z,8.40
2022-11-16T01:03:10.972Z,8.40
2022-11-16T01:06:52.738Z,8.40
2022-11-16T01:10:34.985Z,8.50
2022-11-16T01:14:16.831Z,8.50
2022-11-16T01:17:58.544Z,8.60
2022-11-16T01:21:40.275Z,8.60
2022-11-16T01:25:22.141Z,8.50
2022-11-16T01:29:04.012Z,8.50
2022-11-16T01:32:45.762Z,8.40
2022-11-16T01:36:27.481Z,8.40
2022-11-16T01:40:10.417Z,8.40
2022-11-16T01:44:03.009Z,8.30
2022-11-16T01:47:45.077Z,8.30
2022-11-16T01:51:27.345Z,8.30
2022-11-16T01:55:10.009Z,8.30
2022-11-16T01:58:52.820Z,8.30
2022-11-16T02:02:34.529Z,8.40
2022-11-16T02:06:21.914Z,8.40
2022-11-16T02:10:40.443Z,8.40
2022-11-16T02:14:43.821Z,8.30
2022-11-16T02:18:25.552Z,8.30
2022-11-16T02:22:21.977Z,8.30
2022-11-16T02:26:25.066Z,8.30
2022-11-16T02:30:07.846Z,8.30
2022-11-16T02:33:52.960Z,8.30
2022-11-16T02:37:43.056Z,8.20
2022-11-16T02:41:28.475Z,8.20
2022-11-16T02:45:15.281Z,8.20
2022-11-16T02:49:02.017Z,8.20
2022-11-16T02:52:43.832Z,8.20
2022-11-16T02:56:26.965Z,8.10
2022-11-16T03:00:15.652Z,8.10
2022-11-16T03:04:11.322Z,8.10
2022-11-16T03:08:01.488Z,8.10
2022-11-16T03:11:59.656Z,8.10
2022-11-16T03:15:41.986Z,8.10
2022-11-16T03:19:33.046Z,8.20
2022-11-16T03:23:14.950Z,8.30
2022-11-16T03:27:17.886Z,8.30
2022-11-16T03:31:05.828Z,8.30
2022-11-16T03:34:57.514Z,8.30
2022-11-16T03:38:41.541Z,8.40
2022-11-16T03:42:26.205Z,8.40
2022-11-16T03:46:07.970Z,8.50
2022-11-16T03:49:49.704Z,8.50
2022-11-16T03:53:31.534Z,8.60
2022-11-16T03:57:17.484Z,8.60
2022-11-16T04:01:00.113Z,8.60
2022-11-16T04:05:00.468Z,8.70
2022-11-16T04:09:01.148Z,8.70
2022-11-16T04:13:02.495Z,8.80
2022-11-16T04:17:03.022Z,8.80
2022-11-16T04:21:04.027Z,8.80
2022-11-16T04:24:50.599Z,8.70
2022-11-16T04:28:34.653Z,8.70
2022-11-16T04:32:35.298Z,8.60
2022-11-16T04:36:35.917Z,8.60
2022-11-16T04:40:19.332Z,8.60
2022-11-16T04:44:01.129Z,8.60
2022-11-16T04:47:42.838Z,8.60
2022-11-16T04:51:24.520Z,8.60
2022-11-16T04:55:06.463Z,8.60
2022-11-16T04:58:48.196Z,8.60
2022-11-16T05:02:29.892Z,8.50
2022-11-16T05:06:11.586Z,8.50
2022-11-16T05:09:53.369Z,8.50
2022-11-16T05:13:35.132Z,8.50
2022-11-16T05:17:18.126Z,8.60
2022-11-16T05:21:02.789Z,8.60
2022-11-16T05:24:44.566Z,8.60
2022-11-16T05:28:26.301Z,8.60
2022-11-16T05:32:08.590Z,8.60
2022-11-16T05:35:51.544Z,8.60
2022-11-16T05:39:33.244Z,8.60
2022-11-16T05:43:14.958Z,8.50
2022-11-16T05:46:57.017Z,8.50
2022-11-16T05:50:42.741Z,8.50
2022-11-16T05:54:26.180Z,8.60
2022-11-16T05:58:07.859Z,8.60
2022-11-16T06:01:50.424Z,8.60
2022-11-16T06:05:39.977Z,8.50
2022-11-16T06:09:22.295Z,8.60
2022-11-16T06:13:04.130Z,8.50
2022-11-16T06:16:45.863Z,8.50
2022-11-16T06:20:27.593Z,8.50
2022-11-16T06:24:09.577Z,8.50
2022-11-16T06:27:51.353Z,8.50
2022-11-16T06:31:33.174Z,8.50
2022-11-16T06:35:14.965Z,8.50
2022-11-16T06:38:59.911Z,8.50
2022-11-16T06:42:41.882Z,8.50
2022-11-16T06:46:24.651Z,8.40
2022-11-16T06:50:06.800Z,8.40
2022-11-16T06:53:48.512Z,8.30
2022-11-16T06:57:30.289Z,8.30
2022-11-16T07:01:12.693Z,8.20
2022-11-16T07:04:58.010Z,8.20
2022-11-16T07:08:42.463Z,8.10
2022-11-16T07:12:24.243Z,8.10
2022-11-16T07:16:11.111Z,8.00
2022-11-16T07:19:52.828Z,7.90
2022-11-16T07:23:35.670Z,7.90
2022-11-16T07:27:17.465Z,7.90
2022-11-16T07:31:10.518Z,7.80
2022-11-16T07:34:52.251Z,7.80
2022-11-16T07:38:34.846Z,7.80
2022-11-16T07:42:16.880Z,7.70
2022-11-16T07:46:44.807Z,7.70
2022-11-16T07:50:08.087Z,7.60
2022-11-16T07:53:53.239Z,7.60
2022-11-16T07:57:34.934Z,7.60
2022-11-16T08:01:18.226Z,7.60
2022-11-16T08:04:59.978Z,7.60
2022-11-16T08:08:41.829Z,7.60
2022-11-16T08:12:24.488Z,7.60
2022-11-16T08:16:09.378Z,7.60
2022-11-16T08:19:51.147Z,7.70
2022-11-16T08:23:33.516Z,7.70
2022-11-16T08:27:17.085Z,7.80
2022-11-16T08:30:59.573Z,7.80
2022-11-16T08:34:41.350Z,7.90
2022-11-16T08:38:23.049Z,8.00
2022-11-16T08:42:04.957Z,8.10
2022-11-16T08:45:49.731Z,8.20
2022-11-16T08:49:31.484Z,8.30
2022-11-16T08:53:15.280Z,8.30
2022-11-16T08:56:57.205Z,8.40
2022-11-16T09:00:38.961Z,8.60
2022-11-16T09:04:20.929Z,8.70
2022-11-16T09:08:05.673Z,8.70
2022-11-16T09:11:47.501Z,8.80
2022-11-16T09:15:29.242Z,8.80
2022-11-16T09:19:11.290Z,8.90
2022-11-16T09:22:53.044Z,9.10
2022-11-16T09:26:34.828Z,9.30
2022-11-16T09:30:17.568Z,9.50
2022-11-16T09:33:59.385Z,9.60
2022-11-16T09:37:41.113Z,9.70
2022-11-16T09:41:45.671Z,9.70
2022-11-16T09:45:48.651Z,9.70
2022-11-16T09:49:58.135Z,9.70
2022-11-16T09:53:57.690Z,9.70
2022-11-16T09:57:39.491Z,9.70
2022-11-16T10:01:44.952Z,9.80
2022-11-16T10:05:36.901Z,9.80
2022-11-16T10:09:19.327Z,9.90
2022-11-16T10:13:22.305Z,10.10
2022-11-16T10:17:32.305Z,10.20
2022-11-16T10:21:24.053Z,10.40
2022-11-16T10:25:18.744Z,10.50
2022-11-16T10:29:06.210Z,10.70
2022-11-16T10:33:06.807Z,10.80
2022-11-16T10:36:57.854Z,10.80
2022-11-16T10:40:41.242Z,10.80
2022-11-16T10:44:30.096Z,10.80
2022-11-16T10:48:43.361Z,10.90
2022-11-16T10:52:25.641Z,11.00
2022-11-16T10:56:14.989Z,11.10
2022-11-16T10:59:57.733Z,11.20
2022-11-16T11:03:39.525Z,11.30
2022-11-16T11:07:31.392Z,11.40
2022-11-16T11:11:42.058Z,11.30
2022-11-16T11:15:27.096Z,11.40
2022-11-16T11:19:29.182Z,11.60
2022-11-16T11:23:25.292Z,11.60
2022-11-16T11:27:07.168Z,11.60
2022-11-16T11:31:17.433Z,11.70
2022-11-16T11:35:01.112Z,11.70
2022-11-16T11:39:06.140Z,11.70
2022-11-16T11:43:05.112Z,11.70
2022-11-16T11:47:42.407Z,11.60
2022-11-16T11:51:22.140Z,11.60
2022-11-16T11:55:07.816Z,11.80
2022-11-16T11:58:51.375Z,11.80
2022-11-16T12:02:45.010Z,11.80
2022-11-16T12:06:50.203Z,11.70
2022-11-16T12:11:04.256Z,11.70
2022-11-16T12:15:22.929Z,11.70
2022-11-16T12:19:10.651Z,11.60
2022-11-16T12:23:07.289Z,11.70
2022-11-16T12:27:00.465Z,11.70
2022-11-16T12:31:05.880Z,11.90
2022-11-16T12:35:08.497Z,12.00
2022-11-16T12:39:02.390Z,12.10
2022-11-16T12:42:55.841Z,12.10
2022-11-16T12:47:04.084Z,12.20
2022-11-16T12:51:10.602Z,12.10
2022-11-16T12:55:30.306Z,12.10
2022-11-16T12:59:30.898Z,12.00
2022-11-16T13:03:31.414Z,12.00
2022-11-16T13:07:27.447Z,12.00
2022-11-16T13:11:18.679Z,11.90
2022-11-16T13:15:02.885Z,11.90
2022-11-16T13:18:44.852Z,11.80
2022-11-16T13:22:28.900Z,11.80
2022-11-16T13:26:20.236Z,11.70
2022-11-16T13:30:24.094Z,11.70
2022-11-16T13:34:27.986Z,11.70
2022-11-16T13:38:13.286Z,11.70
2022-11-16T13:42:12.271Z,11.70
2022-11-16T13:46:01.044Z,11.70
2022-11-16T13:49:52.442Z,11.60
2022-11-16T13:57:55.460Z,11.60
2022-11-16T14:02:32.486Z,11.60
2022-11-16T14:06:20.165Z,11.50
2022-11-16T14:10:05.690Z,11.50
2022-11-16T14:13:48.207Z,11.40
2022-11-16T14:17:58.995Z,11.40
2022-11-16T14:22:08.005Z,11.40
2022-11-16T14:26:16.940Z,11.30
2022-11-16T14:30:01.405Z,11.40
2022-11-16T14:33:48.782Z,11.30
2022-11-16T14:37:34.701Z,11.30
2022-11-16T14:41:25.256Z,11.30
2022-11-16T14:45:14.035Z,11.20
2022-11-16T14:48:59.236Z,11.20
2022-11-16T14:52:47.798Z,11.20
2022-11-16T14:56:29.581Z,11.20
2022-11-16T15:00:12.392Z,11.20
2022-11-16T15:04:09.429Z,11.20
2022-11-16T15:07:53.187Z,11.10
2022-11-16T15:11:57.678Z,11.10
2022-11-16T15:15:39.411Z,11.10
2022-11-16T15:19:21.731Z,11.10
2022-11-16T15:23:05.968Z,11.10
2022-11-16T15:26:47.697Z,11.10
2022-11-16T15:30:34.054Z,11.10
2022-11-16T15:34:20.378Z,11.10
2022-11-16T15:38:05.151Z,11.10
2022-11-16T15:41:47.697Z,11.10
2022-11-16T15:45:31.153Z,11.10
2022-11-16T15:49:33.907Z,11.00
2022-11-16T15:53:34.704Z,11.00
2022-11-16T15:57:18.302Z,10.90
2022-11-16T16:01:00.132Z,11.00
2022-11-16T16:04:43.528Z,11.00
2022-11-16T16:08:37.635Z,11.00
2022-11-16T16:12:22.405Z,11.00
2022-11-16T16:16:39.760Z,11.00
2022-11-16T16:20:24.390Z,11.00
2022-11-16T16:24:09.538Z,11.10
2022-11-16T16:27:51.250Z,11.00
2022-11-16T16:31:33.017Z,11.00
2022-11-16T16:35:20.617Z,10.90
2022-11-16T16:39:02.557Z,10.90
2022-11-16T16:42:47.962Z,10.90
2022-11-16T16:46:29.650Z,10.80
2022-11-16T16:50:11.648Z,10.80
2022-11-16T16:53:53.393Z,10.80
2022-11-16T16:57:35.207Z,10.80
2022-11-16T17:01:17.142Z,10.80
2022-11-16T17:04:58.872Z,10.70
2022-11-16T17:08:40.918Z,10.80
2022-11-16T17:12:22.643Z,10.70
2022-11-16T17:16:05.720Z,10.70
2022-11-16T17:19:47.559Z,10.70
2022-11-16T17:23:29.355Z,10.60
2022-11-16T17:27:11.472Z,10.60
2022-11-16T17:30:53.168Z,10.60
2022-11-16T17:34:34.919Z,10.50
2022-11-16T17:38:16.622Z,10.60
2022-11-16T17:41:58.384Z,10.50
2022-11-16T17:45:40.193Z,10.60
2022-11-16T17:49:21.935Z,10.50
2022-11-16T17:53:03.722Z,10.60
2022-11-16T17:56:45.517Z,10.50
2022-11-16T18:00:27.333Z,10.50
2022-11-16T18:04:09.270Z,10.50
2022-11-16T18:07:50.989Z,10.40
2022-11-16T18:11:32.942Z,10.50
2022-11-16T18:15:27.932Z,10.40
2022-11-16T18:19:16.888Z,10.40
2022-11-16T18:22:58.898Z,10.40
2022-11-16T18:26:41.058Z,10.40
2022-11-16T18:30:23.698Z,10.30
2022-11-16T18:34:05.789Z,10.30
2022-11-16T18:37:47.509Z,10.30
2022-11-16T18:41:29.968Z,10.30
2022-11-16T18:45:11.761Z,10.20
2022-11-16T18:48:53.853Z,10.20
2022-11-16T18:52:35.585Z,10.20
2022-11-16T18:56:17.980Z,10.20
2022-11-16T18:59:59.692Z,10.20
2022-11-16T19:03:41.447Z,10.10
2022-11-16T19:07:23.247Z,10.10
2022-11-16T19:11:05.818Z,10.10
2022-11-16T19:14:47.529Z,10.00
2022-11-16T19:18:29.277Z,10.00
2022-11-16T19:22:11.074Z,10.00
2022-11-16T19:26:00.881Z,9.90
2022-11-16T19:29:42.585Z,9.90
2022-11-16T19:33:24.313Z,9.90
2022-11-16T19:37:06.084Z,9.90
2022-11-16T19:40:50.877Z,9.90
2022-11-16T19:44:32.593Z,9.80
2022-11-16T19:48:14.311Z,9.80
2022-11-16T19:51:55.982Z,9.80
2022-11-16T19:55:37.703Z,9.70
2022-11-16T19:59:19.385Z,9.70
2022-11-16T20:03:01.141Z,9.70
2022-11-16T20:06:42.958Z,9.70
2022-11-16T20:10:24.667Z,9.70
2022-11-16T20:14:11.805Z,9.70
2022-11-16T20:17:53.750Z,9.70
2022-11-16T20:21:40.664Z,9.70
2022-11-16T20:25:22.434Z,9.70
2022-11-16T20:29:04.280Z,9.70
2022-11-16T20:32:46.088Z,9.70
2022-11-16T20:36:29.757Z,9.70
2022-11-16T20:40:11.986Z,9.80
2022-11-16T20:43:55.646Z,9.70
2022-11-16T20:47:37.367Z,9.80
2022-11-16T20:51:20.464Z,9.80
2022-11-16T20:55:02.207Z,9.80
2022-11-16T20:58:43.999Z,9.80
2022-11-16T21:02:25.738Z,9.80
2022-11-16T21:06:08.778Z,9.80
2022-11-16T21:10:09.234Z,9.80
2022-11-16T21:14:10.115Z,9.80
2022-11-16T21:17:52.388Z,9.80
2022-11-16T21:21:34.249Z,9.80
2022-11-16T21:25:16.096Z,9.80
2022-11-16T21:28:59.213Z,9.70
2022-11-16T21:32:40.940Z,9.70
2022-11-16T21:36:24.643Z,9.70
2022-11-16T21:40:07.060Z,9.70
2022-11-16T21:43:49.216Z,9.70
2022-11-16T21:47:30.967Z,9.70
2022-11-16T21:51:14.870Z,9.70
2022-11-16T21:54:59.632Z,9.60
2022-11-16T21:58:42.096Z,9.60
2022-11-16T22:02:23.813Z,9.60
2022-11-16T22:06:25.918Z,9.50
2022-11-16T22:10:11.981Z,9.50
2022-11-16T22:13:53.804Z,9.50
2022-11-16T22:17:35.525Z,9.40
2022-11-16T22:21:17.666Z,9.40
2022-11-16T22:24:59.561Z,9.40
2022-11-16T22:28:41.742Z,9.40
2022-11-16T22:32:23.518Z,9.40
2022-11-16T22:36:07.961Z,9.30
2022-11-16T22:39:49.742Z,9.30
2022-11-16T22:43:32.420Z,9.30
2022-11-16T22:47:14.542Z,9.30
2022-11-16T22:51:07.286Z,9.30
2022-11-16T22:54:49.070Z,9.30
2022-11-16T22:58:30.791Z,9.20
2022-11-16T23:02:12.524Z,9.20
2022-11-16T23:05:54.265Z,9.10
2022-11-16T23:09:35.959Z,9.20
2022-11-16T23:13:36.801Z,9.20
2022-11-16T23:17:18.797Z,9.20
2022-11-16T23:21:19.280Z,9.20
2022-11-16T23:25:19.935Z,9.20
2022-11-16T23:29:05.324Z,9.20
2022-11-16T23:32:47.087Z,9.20
2022-11-16T23:36:28.809Z,9.20
2022-11-16T23:40:13.410Z,9.20
2022-11-16T23:43:58.198Z,9.20
2022-11-16T23:47:39.938Z,9.20
2022-11-16T23:51:23.371Z,9.20
2022-11-16T23:55:05.642Z,9.20
2022-11-16T23:58:48.148Z,9.20
